CheckWX is a tool to help pilots better visualize weather data.  It is not intended as a substitute for an official pre-flight weather briefing.

13:21:44 UTC

KELY METAR
Ely Arpt / Yelland Field / Airport
Ely, Nevada, USA
Current

29 mins ago

KELY 181253Z AUTO 18004KT 10SM CLR 07/M07 A3011 RMK AO2 SLP101 T00671072 TSNO
Observed
Aug-18 @ 12:53 UTC
Wind
  • 180° at 4 KTS
Visibility
10 SM
Flight Rules
VFR
Cloud Levels
  • Clear skies
Temperature
C / 45°F
Dewpoint
-7°C / 19°F
Humidity
37%
Altimeter
30.11" Hg
Pressure
1019.62 hPa
Previous

1 hour ago

KELY 181153Z AUTO 17008KT 10SM CLR 07/M06 A3011 RMK AO2 SLP095 T00721061 10156 20072 53008 TSNO
Observed
Aug-18 @ 11:53 UTC
Wind
  • 170° at 8 KTS
Visibility
10 SM
Flight Rules
VFR
Cloud Levels
  • Clear skies
Temperature
C / 45°F
Dewpoint
-6°C / 21°F
Humidity
39%
Altimeter
30.11" Hg
Pressure
1019.62 hPa
Previous

2 hours ago

KELY 181053Z AUTO 18007KT 10SM CLR 09/M05 A3009 RMK AO2 SLP090 T00891050 TSNO
Observed
Aug-18 @ 10:53 UTC
Wind
  • 180° at 7 KTS
Visibility
10 SM
Flight Rules
VFR
Cloud Levels
  • Clear skies
Temperature
C / 48°F
Dewpoint
-5°C / 23°F
Humidity
37%
Altimeter
30.09" Hg
Pressure
1018.92 hPa